createdAt,value
2022-11-03T00:01:47.966Z,14.90
2022-11-03T00:04:19.160Z,14.80
2022-11-03T00:06:49.555Z,14.80
2022-11-03T00:09:20.755Z,14.80
2022-11-03T00:11:50.940Z,14.80
2022-11-03T00:14:18.488Z,14.80
2022-11-03T00:16:46.136Z,14.80
2022-11-03T00:19:17.548Z,14.80
2022-11-03T00:21:45.757Z,14.80
2022-11-03T00:24:13.111Z,14.80
2022-11-03T00:26:40.262Z,14.80
2022-11-03T00:29:10.824Z,14.80
2022-11-03T00:31:39.607Z,14.80
2022-11-03T00:34:07.992Z,14.80
2022-11-03T00:36:37.692Z,14.80
2022-11-03T00:39:05.501Z,14.80
2022-11-03T00:41:38.995Z,14.80
2022-11-03T00:44:06.423Z,14.70
2022-11-03T00:46:36.623Z,14.80
2022-11-03T00:49:05.167Z,14.70
2022-11-03T00:51:34.589Z,14.70
2022-11-03T00:54:07.693Z,14.80
2022-11-03T00:56:43.223Z,14.80
2022-11-03T00:59:10.633Z,14.80
2022-11-03T01:01:46.794Z,14.80
2022-11-03T01:04:36.803Z,14.80
2022-11-03T01:07:07.726Z,14.80
2022-11-03T01:09:40.218Z,14.80
2022-11-03T01:12:09.181Z,14.80
2022-11-03T01:14:50.966Z,14.80
2022-11-03T01:17:25.859Z,14.80
2022-11-03T01:20:37.208Z,14.80
2022-11-03T01:23:04.583Z,14.70
2022-11-03T01:25:32.682Z,14.80
2022-11-03T01:27:59.734Z,14.80
2022-11-03T01:30:27.235Z,14.80
2022-11-03T01:33:02.064Z,14.80
2022-11-03T01:35:29.255Z,14.80
2022-11-03T01:37:59.292Z,14.80
2022-11-03T01:40:26.209Z,14.70
2022-11-03T01:42:53.255Z,14.70
2022-11-03T01:45:21.340Z,14.70
2022-11-03T01:48:10.917Z,14.70
2022-11-03T01:50:38.991Z,14.70
2022-11-03T01:53:07.334Z,14.70
2022-11-03T01:55:40.062Z,14.70
2022-11-03T01:58:30.219Z,14.70
2022-11-03T02:00:59.463Z,14.70
2022-11-03T02:03:29.525Z,14.70
2022-11-03T02:05:56.887Z,14.70
2022-11-03T02:08:35.928Z,14.70
2022-11-03T02:11:25.535Z,14.70
2022-11-03T02:13:53.019Z,14.60
2022-11-03T02:16:23.715Z,14.60
2022-11-03T02:18:53.162Z,14.60
2022-11-03T02:21:26.250Z,14.60
2022-11-03T02:24:16.625Z,14.60
2022-11-03T02:26:47.750Z,14.60
2022-11-03T02:29:15.046Z,14.60
2022-11-03T02:31:48.059Z,14.60
2022-11-03T02:34:32.170Z,14.70
2022-11-03T02:37:05.463Z,14.70
2022-11-03T02:39:37.506Z,14.60
2022-11-03T02:42:05.363Z,14.60
2022-11-03T02:44:34.216Z,14.70
2022-11-03T02:47:06.315Z,14.60
2022-11-03T02:49:46.267Z,14.60
2022-11-03T02:52:38.185Z,14.60
2022-11-03T02:55:42.644Z,14.60
2022-11-03T02:58:31.536Z,14.60
2022-11-03T03:01:49.247Z,14.60
2022-11-03T03:04:36.552Z,14.60
2022-11-03T03:07:32.932Z,14.60
2022-11-03T03:10:12.493Z,14.60
2022-11-03T03:12:43.505Z,14.60
2022-11-03T03:15:10.618Z,14.60
2022-11-03T03:18:04.503Z,14.60
2022-11-03T03:20:50.936Z,14.50
2022-11-03T03:23:32.121Z,14.50
2022-11-03T03:26:05.190Z,14.40
2022-11-03T03:28:43.889Z,14.40
2022-11-03T03:31:14.622Z,14.30
2022-11-03T03:33:47.525Z,14.30
2022-11-03T03:36:19.578Z,14.30
2022-11-03T03:38:55.503Z,14.20
2022-11-03T03:41:24.528Z,14.20
2022-11-03T03:44:01.739Z,14.20
2022-11-03T03:46:35.007Z,14.10
2022-11-03T03:49:02.413Z,14.10
2022-11-03T03:51:31.475Z,14.10
2022-11-03T03:53:58.446Z,14.10
2022-11-03T03:56:33.113Z,14.00
2022-11-03T03:58:59.954Z,14.00
2022-11-03T04:01:27.108Z,13.90
2022-11-03T04:03:54.273Z,13.90
2022-11-03T04:06:21.197Z,13.90
2022-11-03T04:08:48.725Z,13.90
2022-11-03T04:11:34.120Z,13.90
2022-11-03T04:14:19.340Z,13.80
2022-11-03T04:17:04.628Z,13.80
2022-11-03T04:19:50.019Z,13.80
2022-11-03T04:22:17.788Z,13.90
2022-11-03T04:24:51.587Z,13.80
2022-11-03T04:27:24.494Z,13.80
2022-11-03T04:29:52.128Z,13.80
2022-11-03T04:32:19.272Z,13.80
2022-11-03T04:34:48.826Z,13.80
2022-11-03T04:37:16.145Z,13.80
2022-11-03T04:42:21.663Z,13.80
2022-11-03T04:44:51.875Z,13.80
2022-11-03T04:47:18.905Z,13.80
2022-11-03T04:49:47.978Z,13.90
2022-11-03T04:52:21.718Z,13.80
2022-11-03T04:54:52.970Z,13.80
2022-11-03T04:57:19.975Z,13.80
2022-11-03T04:59:49.427Z,13.80
2022-11-03T05:02:22.695Z,13.80
2022-11-03T05:04:49.682Z,13.80
2022-11-03T05:07:32.140Z,13.80
2022-11-03T05:09:59.655Z,13.80
2022-11-03T05:12:26.677Z,13.90
2022-11-03T05:14:58.114Z,13.90
2022-11-03T05:17:28.833Z,14.00
2022-11-03T05:20:00.201Z,13.90
2022-11-03T05:22:31.744Z,14.00
2022-11-03T05:25:06.962Z,14.00
2022-11-03T05:27:33.957Z,14.00
2022-11-03T05:30:01.465Z,14.00
2022-11-03T05:32:34.284Z,14.00
2022-11-03T05:35:01.759Z,13.90
2022-11-03T05:37:33.416Z,13.90
2022-11-03T05:40:14.854Z,13.90
2022-11-03T05:42:45.345Z,13.90
2022-11-03T05:45:26.679Z,13.90
2022-11-03T05:47:55.575Z,13.80
2022-11-03T05:50:33.364Z,13.80
2022-11-03T05:53:30.592Z,13.80
2022-11-03T05:56:01.091Z,13.70
2022-11-03T05:58:37.211Z,13.70
2022-11-03T06:01:24.527Z,13.70
2022-11-03T06:03:53.940Z,13.70
2022-11-03T06:06:20.995Z,13.70
2022-11-03T06:08:48.633Z,13.70
2022-11-03T06:11:23.201Z,13.70
2022-11-03T06:13:50.122Z,13.70
2022-11-03T06:16:37.586Z,13.70
2022-11-03T06:19:33.668Z,13.70
2022-11-03T06:22:15.666Z,13.80
2022-11-03T06:24:42.526Z,13.80
2022-11-03T06:27:47.671Z,13.80
2022-11-03T06:30:35.183Z,13.90
2022-11-03T06:33:27.035Z,13.90
2022-11-03T06:35:59.274Z,14.00
2022-11-03T06:38:33.153Z,14.00
2022-11-03T06:41:37.853Z,14.00
2022-11-03T06:44:43.998Z,14.10
2022-11-03T06:47:39.643Z,14.10
2022-11-03T06:50:26.146Z,14.10
2022-11-03T06:53:09.473Z,14.20
2022-11-03T06:55:43.017Z,14.20
2022-11-03T06:58:40.822Z,14.20
2022-11-03T07:01:57.911Z,14.20
2022-11-03T07:04:30.481Z,14.30
2022-11-03T07:07:03.659Z,14.30
2022-11-03T07:09:30.716Z,14.40
2022-11-03T07:12:41.228Z,14.40
2022-11-03T07:15:23.467Z,14.50
2022-11-03T07:17:52.702Z,14.50
2022-11-03T07:23:27.165Z,14.60
2022-11-03T07:26:27.599Z,14.70
2022-11-03T07:28:56.929Z,14.70
2022-11-03T07:31:36.922Z,14.80
2022-11-03T07:34:15.713Z,14.80
2022-11-03T07:36:44.848Z,14.90
2022-11-03T07:39:18.272Z,14.90
2022-11-03T07:41:45.784Z,14.90
2022-11-03T07:44:25.610Z,15.00
2022-11-03T07:46:57.882Z,15.00
2022-11-03T07:49:45.393Z,15.00
2022-11-03T07:52:20.652Z,15.00
2022-11-03T07:54:49.357Z,15.00
2022-11-03T07:57:23.956Z,15.00
2022-11-03T07:59:54.257Z,15.10
2022-11-03T08:02:37.654Z,15.10
2022-11-03T08:05:08.931Z,15.20
2022-11-03T08:07:37.820Z,15.20
2022-11-03T08:10:06.975Z,15.30
2022-11-03T08:12:34.335Z,15.40
2022-11-03T08:15:09.331Z,15.40
2022-11-03T08:17:36.258Z,15.40
2022-11-03T08:20:10.356Z,15.40
2022-11-03T08:23:19.712Z,15.40
2022-11-03T08:26:06.437Z,15.50
2022-11-03T08:28:44.972Z,15.60
2022-11-03T08:31:20.419Z,15.60
2022-11-03T08:34:12.603Z,15.60
2022-11-03T08:36:49.489Z,15.70
2022-11-03T08:39:37.547Z,15.70
2022-11-03T08:42:07.181Z,15.70
2022-11-03T08:44:44.808Z,15.80
2022-11-03T08:47:17.303Z,15.70
2022-11-03T08:49:59.146Z,15.80
2022-11-03T08:52:43.410Z,15.80
2022-11-03T08:55:44.854Z,15.70
2022-11-03T08:58:23.165Z,15.70
2022-11-03T09:01:06.353Z,15.70
2022-11-03T09:03:37.713Z,15.70
2022-11-03T09:06:07.747Z,15.70
2022-11-03T09:11:52.678Z,15.80
2022-11-03T09:14:54.519Z,16.00
2022-11-03T09:17:39.458Z,16.20
2022-11-03T09:20:17.841Z,16.40
2022-11-03T09:22:58.562Z,16.50
2022-11-03T09:25:30.124Z,16.60
2022-11-03T09:28:08.584Z,16.70
2022-11-03T09:30:36.424Z,16.80
2022-11-03T09:33:16.769Z,16.80
2022-11-03T09:36:13.021Z,16.90
2022-11-03T09:38:45.681Z,17.10
2022-11-03T09:41:44.252Z,17.30
2022-11-03T09:44:47.550Z,17.50
2022-11-03T09:47:42.520Z,17.60
2022-11-03T09:50:23.946Z,17.80
2022-11-03T09:52:56.810Z,17.90
2022-11-03T09:59:01.842Z,18.00
2022-11-03T10:05:11.271Z,18.20
2022-11-03T10:07:48.102Z,18.30
2022-11-03T10:10:25.094Z,18.40
2022-11-03T10:12:58.753Z,18.50
2022-11-03T10:23:02.585Z,18.30
2022-11-03T10:26:35.940Z,18.30
2022-11-03T10:29:33.421Z,18.30
2022-11-03T10:32:39.317Z,18.30
2022-11-03T10:35:52.414Z,18.40
2022-11-03T10:38:56.254Z,18.50
2022-11-03T10:41:44.339Z,18.70
2022-11-03T10:44:49.437Z,18.60
2022-11-03T10:50:45.899Z,18.60
2022-11-03T10:53:30.580Z,18.60
2022-11-03T11:00:19.022Z,18.40
2022-11-03T11:06:02.296Z,18.30
2022-11-03T11:12:31.331Z,18.30
2022-11-03T11:22:05.787Z,18.70
2022-11-03T11:28:32.531Z,18.90
2022-11-03T11:31:51.098Z,18.80
2022-11-03T11:41:00.144Z,18.50
2022-11-03T11:43:53.525Z,18.60
2022-11-03T11:47:02.721Z,18.60
2022-11-03T11:51:06.922Z,18.60
2022-11-03T11:53:50.960Z,18.70
2022-11-03T11:56:28.734Z,18.60
2022-11-03T11:59:15.677Z,18.60
2022-11-03T12:01:49.019Z,18.60
2022-11-03T12:07:41.979Z,18.70
2022-11-03T12:10:20.707Z,18.70
2022-11-03T12:12:49.054Z,18.80
2022-11-03T12:23:17.049Z,18.70
2022-11-03T12:25:48.364Z,18.70
2022-11-03T12:28:44.020Z,18.70
2022-11-03T12:44:00.380Z,18.40
2022-11-03T12:49:49.504Z,18.30
2022-11-03T12:57:00.932Z,18.10
2022-11-03T13:02:32.835Z,18.10
2022-11-03T13:05:38.275Z,18.10
2022-11-03T13:08:14.146Z,18.10
2022-11-03T13:10:45.838Z,18.00
2022-11-03T13:16:42.110Z,18.00
2022-11-03T13:19:22.833Z,17.90
2022-11-03T13:22:01.266Z,17.80
2022-11-03T13:24:48.725Z,17.80
2022-11-03T13:31:09.043Z,17.70
2022-11-03T13:34:37.746Z,17.70
2022-11-03T13:37:35.983Z,17.60
2022-11-03T13:43:47.939Z,17.50
2022-11-03T13:50:58.074Z,17.40
2022-11-03T14:00:05.070Z,17.40
2022-11-03T14:06:21.194Z,17.40
2022-11-03T14:18:37.916Z,17.60
2022-11-03T14:24:57.618Z,17.60
2022-11-03T14:37:19.302Z,17.50
2022-11-03T15:00:18.681Z,17.20
2022-11-03T15:06:22.685Z,17.10
2022-11-03T15:08:56.431Z,17.00
2022-11-03T15:29:15.599Z,16.90
2022-11-03T15:34:43.321Z,16.90
2022-11-03T15:37:22.837Z,16.90
2022-11-03T15:44:06.394Z,16.80
2022-11-03T15:53:33.830Z,16.70
2022-11-03T16:07:09.059Z,16.50
2022-11-03T16:10:26.014Z,16.40
2022-11-03T16:13:29.520Z,16.40
2022-11-03T16:29:16.791Z,16.20
2022-11-03T16:35:11.002Z,16.20
2022-11-03T16:41:24.908Z,16.10
2022-11-03T16:47:06.711Z,16.10
2022-11-03T16:57:05.998Z,16.00
2022-11-03T16:59:52.194Z,16.00
2022-11-03T17:05:21.314Z,16.10
2022-11-03T17:08:02.299Z,16.10
2022-11-03T17:18:41.075Z,16.00
2022-11-03T17:21:19.192Z,16.00
2022-11-03T17:23:48.984Z,16.00
2022-11-03T17:26:24.230Z,15.90
2022-11-03T17:28:58.931Z,15.90
2022-11-03T17:31:41.260Z,15.90
2022-11-03T17:34:20.295Z,16.00
2022-11-03T17:37:11.344Z,15.90
2022-11-03T17:39:42.559Z,16.00
2022-11-03T17:42:21.081Z,15.90
2022-11-03T17:44:54.968Z,15.90
2022-11-03T17:50:18.447Z,16.00
2022-11-03T17:52:49.246Z,15.90
2022-11-03T17:55:37.742Z,15.90
2022-11-03T17:58:06.150Z,15.90
2022-11-03T18:00:35.840Z,15.90
2022-11-03T18:03:22.431Z,16.00
2022-11-03T18:05:52.869Z,16.00
2022-11-03T18:08:27.081Z,16.00
2022-11-03T18:10:56.493Z,15.90
2022-11-03T18:14:23.192Z,15.90
2022-11-03T18:16:53.024Z,15.90
2022-11-03T18:19:22.007Z,15.90
2022-11-03T18:21:53.807Z,15.90
2022-11-03T18:24:24.564Z,16.00
2022-11-03T18:26:56.096Z,15.90
2022-11-03T18:36:47.176Z,15.90
2022-11-03T18:45:25.032Z,16.00
2022-11-03T18:51:19.562Z,16.00
2022-11-03T18:57:24.912Z,16.00
2022-11-03T19:00:40.597Z,16.00
2022-11-03T19:06:35.241Z,15.90
2022-11-03T19:09:05.001Z,15.90
2022-11-03T19:11:35.043Z,15.90
2022-11-03T19:14:02.281Z,15.90
2022-11-03T19:16:31.641Z,15.90
2022-11-03T19:18:59.843Z,15.90
2022-11-03T19:21:28.258Z,15.90
2022-11-03T19:23:58.345Z,15.90
2022-11-03T19:26:34.971Z,15.80
2022-11-03T19:29:36.670Z,15.80
2022-11-03T19:32:06.092Z,15.80
2022-11-03T19:34:35.316Z,15.80
2022-11-03T19:37:04.289Z,15.80
2022-11-03T19:39:39.033Z,15.80
2022-11-03T19:42:29.428Z,15.80
2022-11-03T19:45:05.162Z,15.80
2022-11-03T19:47:57.724Z,15.80
2022-11-03T19:50:38.085Z,15.80
2022-11-03T19:53:07.541Z,15.80
2022-11-03T19:58:29.929Z,15.80
2022-11-03T20:01:19.645Z,15.70
2022-11-03T20:03:49.122Z,15.70
2022-11-03T20:06:19.384Z,15.80
2022-11-03T20:08:49.443Z,15.70
2022-11-03T20:11:16.468Z,15.70
2022-11-03T20:13:45.618Z,15.70
2022-11-03T20:16:20.935Z,15.70
2022-11-03T20:18:48.991Z,15.70
2022-11-03T20:21:18.321Z,15.70
2022-11-03T20:23:47.249Z,15.80
2022-11-03T20:26:18.001Z,15.80
2022-11-03T20:28:51.126Z,15.80
2022-11-03T20:32:13.864Z,15.80
2022-11-03T20:35:38.385Z,15.80
2022-11-03T20:38:49.295Z,15.70
2022-11-03T20:42:01.983Z,15.60
2022-11-03T20:47:48.115Z,15.70
2022-11-03T21:01:33.792Z,15.60
2022-11-03T21:05:10.134Z,15.60
2022-11-03T21:15:26.680Z,15.60
2022-11-03T21:22:52.061Z,15.60
2022-11-03T21:36:37.248Z,15.60
2022-11-03T21:39:04.546Z,15.60
2022-11-03T21:41:49.947Z,15.60
2022-11-03T21:44:17.043Z,15.60
2022-11-03T21:46:47.097Z,15.60
2022-11-03T21:49:32.832Z,15.60
2022-11-03T21:52:00.099Z,15.60
2022-11-03T21:54:34.169Z,15.60
2022-11-03T22:04:11.134Z,15.60
2022-11-03T22:07:10.031Z,15.60
2022-11-03T22:09:39.305Z,15.60
2022-11-03T22:13:01.549Z,15.60
2022-11-03T22:16:24.449Z,15.60
2022-11-03T22:19:59.582Z,15.60
2022-11-03T22:26:37.294Z,15.60
2022-11-03T22:33:22.784Z,15.60
2022-11-03T22:37:00.201Z,15.60
2022-11-03T22:43:21.574Z,15.50
2022-11-03T22:45:54.399Z,15.60
2022-11-03T22:48:23.254Z,15.60
2022-11-03T22:51:28.903Z,15.50
2022-11-03T23:03:53.470Z,15.50
2022-11-03T23:09:41.200Z,15.50
2022-11-03T23:12:08.816Z,15.50
2022-11-03T23:14:56.308Z,15.50
2022-11-03T23:17:47.622Z,15.50
2022-11-03T23:24:53.462Z,15.50
2022-11-03T23:36:05.456Z,15.50
2022-11-03T23:38:39.321Z,15.60
2022-11-03T23:41:33.556Z,15.60
2022-11-03T23:48:46.921Z,15.60
2022-11-03T23:52:10.072Z,15.50
